Time;durP1;ratioP1;P1;durP2;ratioP2;P2;SDS_P1;SDS_P2;PMS_P1;PMS_P2;Temp;Humidity;BMP_temperature;BMP_pressure;BME280_temperature;BME280_humidity;BME280_pressure;Samples;Min_cycle;Max_cycle;Signal;HPM_P1;HPM_P2
2021/05/25 00:01:45;;;;;;;0.87;0.63;;;;;;;9.37;83.59;100128.50;128115;1104;62605;-78
2021/05/25 00:04:12;;;;;;;1.23;0.73;;;;;;;9.35;84.21;100129.66;128053;1104;63051;-79
2021/05/25 00:06:39;;;;;;;1.83;1.10;;;;;;;9.32;84.46;100133.50;128081;1104;63063;-78
2021/05/25 00:09:06;;;;;;;1.90;0.90;;;;;;;9.30;84.83;100132.86;128049;1104;62992;-79
2021/05/25 00:11:35;;;;;;;2.90;1.20;;;;;;;9.30;84.37;100138.15;128067;1104;62247;-78
2021/05/25 00:14:04;;;;;;;2.57;0.83;;;;;;;9.29;85.02;100133.88;128172;1101;62324;-79
2021/05/25 00:16:31;;;;;;;1.40;0.80;;;;;;;9.26;85.85;100136.86;128120;1104;62206;-78
2021/05/25 00:18:58;;;;;;;1.00;0.50;;;;;;;9.25;85.57;100135.23;128181;1101;62240;-79
2021/05/25 00:21:25;;;;;;;1.83;0.80;;;;;;;9.25;85.79;100135.23;128143;1104;62924;-79
2021/05/25 00:23:53;;;;;;;1.63;0.70;;;;;;;9.25;86.00;100143.17;127982;1104;62268;-79
2021/05/25 00:26:19;;;;;;;1.17;0.60;;;;;;;9.26;85.51;100155.39;128199;1101;62936;-79
2021/05/25 00:28:46;;;;;;;1.23;0.77;;;;;;;9.28;85.72;100156.03;128124;1101;62585;-78
2021/05/25 00:31:13;;;;;;;1.80;0.80;;;;;;;9.33;86.19;100164.28;128194;1101;63147;-79
2021/05/25 00:33:41;;;;;;;1.73;0.90;;;;;;;9.37;86.54;100165.56;128120;1101;62962;-79
2021/05/25 00:36:10;;;;;;;1.30;0.90;;;;;;;9.40;86.74;100161.73;128105;1104;62064;-80
2021/05/25 00:38:38;;;;;;;1.70;0.80;;;;;;;9.47;86.37;100167.12;128135;1104;62221;-79
2021/05/25 00:41:05;;;;;;;1.30;0.70;;;;;;;9.52;85.59;100164.73;128146;1104;62125;-79
2021/05/25 00:43:32;;;;;;;4.40;1.13;;;;;;;9.55;86.14;100159.91;128181;1101;62188;-79
2021/05/25 00:45:59;;;;;;;1.47;0.70;;;;;;;9.58;85.82;100156.92;128112;1104;62578;-79
2021/05/25 00:48:26;;;;;;;1.93;0.70;;;;;;;9.63;85.71;100155.52;128093;1104;62468;-79
2021/05/25 00:50:55;;;;;;;1.67;0.80;;;;;;;9.62;86.59;100151.25;128148;1101;62275;-80
2021/05/25 00:53:22;;;;;;;2.57;0.97;;;;;;;9.61;86.16;100166.32;128110;1104;62440;-79
2021/05/25 00:55:50;;;;;;;5.07;2.07;;;;;;;9.63;86.16;100166.11;128223;1101;62140;-79
2021/05/25 00:58:18;;;;;;;2.27;0.80;;;;;;;9.65;84.98;100162.30;128120;1101;62840;-79
2021/05/25 01:00:49;;;;;;;1.47;0.70;;;;;;;9.68;85.37;100163.77;128053;1104;62691;-79
2021/05/25 01:03:19;;;;;;;1.87;0.80;;;;;;;9.71;85.32;100181.92;128081;1104;62298;-79
2021/05/25 01:05:50;;;;;;;0.97;0.70;;;;;;;9.76;85.82;100179.57;128091;1104;62398;-79
2021/05/25 01:08:17;;;;;;;1.73;0.70;;;;;;;9.79;84.95;100174.71;128184;1102;62752;-79
2021/05/25 01:11:02;;;;;;;2.77;0.87;;;;;;;9.85;84.79;100175.00;128052;1104;62289;-79
2021/05/25 01:13:33;;;;;;;2.13;1.00;;;;;;;9.92;84.54;100170.60;128113;1104;62547;-79
2021/05/25 01:16:01;;;;;;;1.37;0.70;;;;;;;9.95;84.36;100175.55;128127;1104;62720;-80
2021/05/25 01:18:28;;;;;;;2.13;0.67;;;;;;;9.99;84.45;100174.19;128095;1104;62887;-79
2021/05/25 01:20:55;;;;;;;1.70;0.90;;;;;;;10.03;84.10;100180.77;128116;1104;62307;-80
2021/05/25 01:23:22;;;;;;;2.20;0.80;;;;;;;10.05;84.44;100177.91;128206;1101;62868;-80
2021/05/25 01:25:49;;;;;;;2.27;0.90;;;;;;;10.09;84.17;100180.00;128254;1101;61946;-81
2021/05/25 01:28:20;;;;;;;1.53;0.60;;;;;;;10.15;83.70;100181.91;128169;1101;62211;-81
2021/05/25 01:30:51;;;;;;;1.30;0.70;;;;;;;10.18;83.17;100168.31;128170;1104;62227;-81
2021/05/25 01:33:21;;;;;;;1.20;0.53;;;;;;;10.23;82.84;100164.28;128215;1101;62177;-81
2021/05/25 01:35:48;;;;;;;1.00;0.60;;;;;;;10.26;81.79;100162.06;128183;1104;62878;-81
2021/05/25 01:38:17;;;;;;;3.90;1.00;;;;;;;10.30;81.33;100154.59;128257;1101;62761;-80
2021/05/25 01:40:45;;;;;;;2.10;0.63;;;;;;;10.34;80.56;100169.13;128118;1104;62121;-81
2021/05/25 01:43:13;;;;;;;1.43;0.73;;;;;;;10.36;80.62;100180.37;128115;1104;62568;-81
2021/05/25 01:45:41;;;;;;;0.90;0.60;;;;;;;10.38;80.83;100178.36;128129;1101;62134;-81
2021/05/25 01:48:10;;;;;;;1.87;0.70;;;;;;;10.37;80.46;100192.60;128102;1104;62884;-81
2021/05/25 01:50:39;;;;;;;1.47;0.60;;;;;;;10.36;80.29;100186.48;128082;1104;62642;-81
2021/05/25 01:53:12;;;;;;;5.67;0.83;;;;;;;10.32;80.27;100182.56;128123;1104;62377;-81
2021/05/25 01:55:45;;;;;;;1.30;0.53;;;;;;;10.32;79.56;100179.09;128203;1101;63148;-81
2021/05/25 01:58:15;;;;;;;0.87;0.40;;;;;;;10.31;80.27;100183.58;128111;1104;62481;-79
2021/05/25 02:00:51;;;;;;;0.90;0.57;;;;;;;10.29;79.93;100190.05;128147;1104;63107;-80
2021/05/25 02:03:18;;;;;;;1.10;0.60;;;;;;;10.27;79.82;100190.23;128140;1104;62203;-80
2021/05/25 02:05:47;;;;;;;0.53;0.50;;;;;;;10.26;80.18;100177.97;128088;1104;62360;-81
2021/05/25 02:08:15;;;;;;;2.37;0.80;;;;;;;10.26;80.52;100179.80;128117;1104;62225;-80
2021/05/25 02:10:46;;;;;;;1.03;0.60;;;;;;;10.23;79.91;100178.35;128130;1104;62406;-80
2021/05/25 02:13:19;;;;;;;0.97;0.63;;;;;;;10.24;79.87;100177.33;128134;1101;62935;-80
2021/05/25 02:16:15;;;;;;;0.90;0.40;;;;;;;10.24;79.96;100176.52;128179;1104;62194;-80
2021/05/25 02:18:45;;;;;;;1.00;0.50;;;;;;;10.24;80.17;100176.52;128226;1101;62750;-80
2021/05/25 02:21:17;;;;;;;0.90;0.50;;;;;;;10.21;80.09;100177.71;128398;1101;62113;-84
2021/05/25 02:23:45;;;;;;;2.23;0.70;;;;;;;10.20;79.56;100192.80;128190;1101;62188;-81
2021/05/25 02:26:13;;;;;;;0.67;0.50;;;;;;;10.19;79.69;100185.84;128176;1104;62127;-82
2021/05/25 02:28:41;;;;;;;1.00;0.50;;;;;;;10.19;80.37;100182.38;128137;1104;62096;-79
2021/05/25 02:31:09;;;;;;;1.27;0.67;;;;;;;10.19;79.67;100185.02;128155;1104;62004;-79
2021/05/25 02:33:36;;;;;;;2.10;0.57;;;;;;;10.18;80.06;100186.05;128106;1104;62207;-79
2021/05/25 02:36:04;;;;;;;1.03;0.60;;;;;;;10.17;79.34;100185.20;128139;1104;62250;-78
2021/05/25 02:38:31;;;;;;;0.60;0.50;;;;;;;10.14;80.06;100185.58;128089;1104;62856;-79
2021/05/25 02:40:59;;;;;;;1.23;0.60;;;;;;;10.13;79.56;100185.77;128077;1102;62267;-79
2021/05/25 02:43:29;;;;;;;3.17;0.80;;;;;;;10.13;80.14;100186.58;128059;1104;62161;-79
2021/05/25 02:45:57;;;;;;;0.80;0.50;;;;;;;10.12;78.91;100186.78;128116;1104;62211;-78
2021/05/25 02:48:24;;;;;;;0.80;0.60;;;;;;;10.13;78.29;100180.46;128105;1104;62082;-78
2021/05/25 02:50:52;;;;;;;6.33;1.00;;;;;;;10.11;77.84;100177.98;128201;1102;62812;-78
2021/05/25 02:53:19;;;;;;;1.40;0.63;;;;;;;10.09;76.93;100179.18;128045;1104;62151;-79
2021/05/25 02:55:47;;;;;;;1.73;0.60;;;;;;;10.08;76.72;100183.67;128112;1104;63069;-79
2021/05/25 02:58:14;;;;;;;2.50;0.60;;;;;;;10.07;76.14;100195.26;128064;1104;62286;-79
2021/05/25 03:00:47;;;;;;;2.47;0.70;;;;;;;10.05;76.22;100199.95;128091;1104;62035;-79
2021/05/25 03:03:15;;;;;;;0.83;0.50;;;;;;;10.02;75.86;100205.60;128154;1101;62463;-79
2021/05/25 03:05:44;;;;;;;0.80;0.60;;;;;;;9.96;74.82;100211.63;128089;1104;62280;-79
2021/05/25 03:08:12;;;;;;;2.90;0.30;;;;;;;9.92;75.31;100215.64;128053;1104;62186;-78
2021/05/25 03:10:42;;;;;;;0.80;0.50;;;;;;;9.88;75.35;100219.66;128101;1104;62952;-79
2021/05/25 03:13:09;;;;;;;3.30;0.77;;;;;;;9.87;74.98;100224.14;128098;1104;62151;-77
2021/05/25 03:15:44;;;;;;;1.83;0.70;;;;;;;9.90;75.49;100228.25;128111;1104;62275;-78
2021/05/25 03:18:12;;;;;;;2.30;0.50;;;;;;;9.91;75.05;100227.27;128073;1104;62104;-78
2021/05/25 03:20:43;;;;;;;1.57;0.70;;;;;;;9.92;74.28;100231.54;128088;1103;62083;-79
2021/05/25 03:23:10;;;;;;;4.40;0.95;;;;;;;9.92;74.65;100234.19;128080;1104;62273;-79
2021/05/25 03:25:37;;;;;;;0.93;0.40;;;;;;;9.92;74.08;100237.66;128086;1104;62251;-80
2021/05/25 03:28:05;;;;;;;1.80;0.50;;;;;;;9.88;74.20;100232.91;128138;1105;62854;-79
2021/05/25 03:30:32;;;;;;;1.10;0.50;;;;;;;9.95;74.27;100241.80;128100;1104;62589;-79
2021/05/25 03:33:00;;;;;;;0.77;0.40;;;;;;;9.93;74.52;100243.80;128217;1101;62168;-79
2021/05/25 03:35:28;;;;;;;1.10;0.40;;;;;;;9.91;73.93;100241.33;128140;1104;62235;-79
2021/05/25 03:37:56;;;;;;;3.10;0.50;;;;;;;9.89;73.70;100237.22;128196;1101;62285;-79
2021/05/25 03:40:25;;;;;;;0.40;0.20;;;;;;;9.86;73.85;100237.56;128113;1104;62836;-78
2021/05/25 03:42:53;;;;;;;3.00;0.60;;;;;;;9.85;74.48;100244.70;128211;1101;62188;-79
2021/05/25 03:45:22;;;;;;;0.97;0.60;;;;;;;9.83;74.78;100238.75;128259;1101;62190;-79
2021/05/25 03:47:50;;;;;;;2.33;0.60;;;;;;;9.85;73.90;100242.05;128286;1101;62499;-80
2021/05/25 03:50:18;;;;;;;1.00;0.60;;;;;;;9.87;74.20;100241.88;128222;1101;62212;-79
2021/05/25 03:52:52;;;;;;;1.67;0.43;;;;;;;9.88;74.41;100243.50;128150;1104;62070;-79
2021/05/25 04:00:34;;;;;;;1.30;0.50;;;;;;;9.88;74.07;100247.00;128133;1104;62553;-79
2021/05/25 04:03:02;;;;;;;2.10;0.90;;;;;;;9.87;73.91;100252.47;128136;1104;62202;-80
2021/05/25 04:05:30;;;;;;;0.83;0.50;;;;;;;9.90;74.29;100257.39;128116;1104;63464;-79
2021/05/25 04:07:57;;;;;;;0.80;0.40;;;;;;;9.92;73.58;100261.50;128181;1101;62745;-79
2021/05/25 04:10:25;;;;;;;1.10;0.50;;;;;;;9.96;73.52;100259.32;128117;1101;62344;-79
2021/05/25 04:12:52;;;;;;;1.23;0.60;;;;;;;10.00;73.71;100265.91;128212;1102;62507;-79
2021/05/25 04:15:19;;;;;;;2.67;0.90;;;;;;;10.03;73.38;100262.91;128082;1104;63230;-79
2021/05/25 04:17:47;;;;;;;2.00;0.57;;;;;;;10.05;74.04;100268.85;128111;1104;62888;-79
2021/05/25 04:20:14;;;;;;;1.27;0.50;;;;;;;10.08;74.19;100268.47;128086;1104;62267;-79
2021/05/25 04:22:41;;;;;;;2.40;0.70;;;;;;;10.11;73.92;100275.23;128216;1101;62320;-79
2021/05/25 04:25:09;;;;;;;0.77;0.50;;;;;;;10.13;72.14;100279.34;128158;1104;62604;-79
2021/05/25 04:27:36;;;;;;;1.83;0.70;;;;;;;10.15;71.76;100279.16;128112;1104;62644;-79
2021/05/25 04:30:05;;;;;;;2.07;0.40;;;;;;;10.15;71.95;100271.22;128107;1104;62883;-79
2021/05/25 04:32:32;;;;;;;1.20;0.43;;;;;;;10.17;71.38;100283.27;128122;1104;62232;-79
2021/05/25 04:35:00;;;;;;;1.50;0.53;;;;;;;10.18;71.45;100274.33;128125;1104;62069;-79
2021/05/25 04:37:28;;;;;;;1.40;0.53;;;;;;;10.21;71.72;100273.14;128201;1102;62419;-80
2021/05/25 04:39:55;;;;;;;1.03;0.50;;;;;;;10.26;71.56;100267.28;128286;1101;62370;-79
2021/05/25 04:42:23;;;;;;;3.70;0.63;;;;;;;10.28;71.06;100270.58;128075;1104;62834;-79
2021/05/25 04:44:50;;;;;;;1.27;0.60;;;;;;;10.30;72.26;100277.36;128054;1104;62524;-81
2021/05/25 04:47:17;;;;;;;2.27;0.50;;;;;;;10.27;71.30;100284.84;128146;1101;62176;-80
2021/05/25 04:49:44;;;;;;;1.23;0.50;;;;;;;10.22;71.76;100285.38;128229;1101;63199;-80
2021/05/25 04:52:11;;;;;;;1.40;0.60;;;;;;;10.15;71.50;100285.28;128140;1104;62146;-79
2021/05/25 04:54:38;;;;;;;1.10;0.70;;;;;;;10.10;71.57;100287.67;128165;1104;62988;-79
2021/05/25 04:57:05;;;;;;;1.30;0.67;;;;;;;10.07;71.40;100284.55;128071;1104;62335;-79
2021/05/25 04:59:32;;;;;;;0.87;0.37;;;;;;;10.08;72.11;100291.52;128105;1104;62196;-79
2021/05/25 05:01:59;;;;;;;2.00;0.50;;;;;;;10.12;71.99;100292.80;128115;1101;62248;-79
2021/05/25 05:04:26;;;;;;;0.70;0.30;;;;;;;10.15;72.04;100293.23;128101;1104;62372;-79
2021/05/25 05:06:53;;;;;;;2.00;0.57;;;;;;;10.23;71.55;100304.77;128197;1101;62892;-74
2021/05/25 05:09:22;;;;;;;2.13;0.47;;;;;;;10.35;71.77;100287.45;128086;1104;62025;-73
2021/05/25 05:11:49;;;;;;;1.20;0.50;;;;;;;10.51;71.46;100295.19;128110;1104;62140;-74
2021/05/25 05:14:16;;;;;;;1.83;0.63;;;;;;;10.63;70.15;100292.90;128118;1104;62126;-74
2021/05/25 05:16:43;;;;;;;2.87;0.50;;;;;;;10.66;70.09;100292.52;128081;1104;62019;-74
2021/05/25 05:19:11;;;;;;;1.27;0.70;;;;;;;10.68;69.41;100287.84;128193;1101;62988;-74
2021/05/25 05:21:38;;;;;;;1.30;0.40;;;;;;;10.70;70.00;100290.33;128046;1104;62386;-75
2021/05/25 05:24:05;;;;;;;1.60;0.50;;;;;;;10.71;70.38;100290.14;128188;1101;63044;-74
2021/05/25 05:26:32;;;;;;;5.73;0.57;;;;;;;10.63;69.04;100287.59;128048;1102;62463;-74
2021/05/25 05:29:00;;;;;;;1.40;0.60;;;;;;;10.57;70.01;100289.14;128087;1104;62442;-75
2021/05/25 05:31:27;;;;;;;2.03;0.50;;;;;;;10.54;69.43;100293.98;128107;1101;63261;-75
2021/05/25 05:33:54;;;;;;;2.30;0.50;;;;;;;10.51;69.70;100295.19;128092;1104;61921;-75
2021/05/25 05:36:21;;;;;;;2.70;0.50;;;;;;;10.60;69.53;100293.25;128202;1101;62061;-74
2021/05/25 05:38:48;;;;;;;1.20;0.60;;;;;;;10.72;69.60;100293.61;128175;1101;62227;-75
2021/05/25 05:41:15;;;;;;;1.40;0.60;;;;;;;10.84;69.25;100299.25;128143;1104;62286;-74
2021/05/25 05:43:42;;;;;;;0.70;0.40;;;;;;;10.92;69.22;100292.03;128085;1104;62121;-74
2021/05/25 05:46:09;;;;;;;1.10;0.50;;;;;;;11.02;68.71;100303.14;128103;1104;62207;-75
2021/05/25 05:48:36;;;;;;;1.40;0.73;;;;;;;11.13;67.69;100293.05;128135;1104;62212;-75
2021/05/25 05:51:03;;;;;;;2.10;0.60;;;;;;;11.13;67.43;100287.73;128099;1104;62349;-75
2021/05/25 05:53:30;;;;;;;1.80;0.40;;;;;;;11.13;67.47;100309.79;128105;1104;62416;-75
2021/05/25 05:55:57;;;;;;;1.97;0.40;;;;;;;11.19;67.17;100293.11;128094;1104;62985;-75
2021/05/25 05:58:25;;;;;;;3.50;0.60;;;;;;;11.37;65.92;100310.47;128107;1104;62302;-75
2021/05/25 06:00:52;;;;;;;2.07;0.60;;;;;;;11.51;65.43;100306.08;128078;1104;62197;-74
2021/05/25 06:03:19;;;;;;;1.17;0.53;;;;;;;11.53;65.08;100301.41;128142;1104;62094;-75
2021/05/25 06:05:46;;;;;;;3.47;0.73;;;;;;;11.56;64.91;100306.32;128074;1104;62051;-75
2021/05/25 06:08:15;;;;;;;2.60;0.43;;;;;;;11.65;65.09;100310.51;128109;1104;62868;-75
2021/05/25 06:10:50;;;;;;;3.40;0.73;;;;;;;11.74;63.57;100314.66;128072;1104;62532;-74
2021/05/25 06:13:25;;;;;;;0.67;0.40;;;;;;;11.65;64.02;100313.16;128190;1101;62112;-74
2021/05/25 06:15:57;;;;;;;1.35;0.78;;;;;;;11.59;63.82;100304.11;128145;1104;62108;-75
2021/05/25 06:18:24;;;;;;;1.63;0.80;;;;;;;11.55;64.58;100315.31;128098;1104;63171;-74
2021/05/25 06:20:51;;;;;;;2.10;0.80;;;;;;;11.55;64.00;100320.63;128052;1104;63222;-74
2021/05/25 06:23:18;;;;;;;1.53;0.73;;;;;;;11.49;63.54;100318.73;128109;1102;62678;-72
2021/05/25 06:25:47;;;;;;;3.27;0.70;;;;;;;11.51;63.76;100319.36;128103;1104;62381;-72
2021/05/25 06:28:15;;;;;;;3.90;2.13;;;;;;;11.57;63.23;100326.58;128083;1105;62272;-71
2021/05/25 06:30:43;;;;;;;6.10;2.87;;;;;;;11.67;64.15;100316.45;128123;1104;62539;-71
2021/05/25 06:33:10;;;;;;;2.57;1.10;;;;;;;11.74;63.38;100314.66;128103;1104;62852;-71
2021/05/25 06:35:37;;;;;;;4.73;1.50;;;;;;;11.78;62.41;100352.31;128131;1104;62064;-71
2021/05/25 06:38:04;;;;;;;2.13;1.30;;;;;;;11.86;63.33;100324.77;128107;1104;62144;-71
2021/05/25 06:40:31;;;;;;;1.90;0.60;;;;;;;12.03;62.30;100326.17;128173;1104;62029;-72
2021/05/25 06:42:58;;;;;;;7.35;3.80;;;;;;;12.24;61.71;100326.11;128134;1104;62318;-72
2021/05/25 06:45:25;;;;;;;3.83;2.13;;;;;;;12.44;61.17;100322.75;128152;1104;62812;-72
2021/05/25 06:47:53;;;;;;;1.77;1.03;;;;;;;12.51;59.53;100334.23;128055;1104;62158;-72
2021/05/25 06:50:21;;;;;;;5.37;2.97;;;;;;;12.44;59.46;100326.22;128025;1104;64113;-73
2021/05/25 06:52:48;;;;;;;6.60;2.23;;;;;;;12.41;59.85;100326.63;128094;1104;62421;-73
2021/05/25 06:55:16;;;;;;;2.77;1.53;;;;;;;12.29;60.67;100325.52;128101;1104;63003;-73
2021/05/25 06:57:43;;;;;;;3.10;0.87;;;;;;;12.15;60.52;100321.94;128129;1104;62113;-73
2021/05/25 07:00:12;;;;;;;2.97;1.13;;;;;;;12.07;61.76;100332.75;128100;1104;62035;-74
2021/05/25 07:02:39;;;;;;;4.27;2.00;;;;;;;11.98;60.93;100333.89;128078;1104;62179;-73
2021/05/25 07:05:09;;;;;;;1.70;0.80;;;;;;;11.92;60.78;100342.63;128112;1104;62012;-73
2021/05/25 07:07:36;;;;;;;6.33;0.90;;;;;;;11.84;60.63;100343.58;128107;1104;62129;-73
2021/05/25 07:10:05;;;;;;;2.83;0.87;;;;;;;11.87;60.96;100343.18;128139;1101;62297;-72
2021/05/25 07:12:33;;;;;;;3.10;1.00;;;;;;;11.97;61.64;100342.89;128114;1104;62397;-73
2021/05/25 07:15:02;;;;;;;2.77;0.70;;;;;;;11.94;59.91;100338.79;128121;1104;62268;-73
2021/05/25 07:17:30;;;;;;;3.87;2.10;;;;;;;11.95;60.42;100344.92;128035;1104;62232;-72
2021/05/25 07:19:58;;;;;;;2.33;0.60;;;;;;;11.98;60.24;100344.52;128122;1104;62095;-72
2021/05/25 07:22:25;;;;;;;1.83;1.00;;;;;;;11.99;60.89;100346.19;128099;1104;63447;-74
2021/05/25 07:24:52;;;;;;;4.00;0.60;;;;;;;12.01;59.46;100350.29;128085;1104;62226;-73
2021/05/25 07:27:20;;;;;;;2.53;1.00;;;;;;;12.06;60.22;100341.73;128080;1104;62367;-73
2021/05/25 07:29:47;;;;;;;5.77;2.57;;;;;;;12.11;59.17;100338.48;128139;1104;62252;-72
2021/05/25 07:32:14;;;;;;;6.97;2.13;;;;;;;12.10;59.18;100345.64;127981;1104;62254;-72
2021/05/25 07:34:42;;;;;;;4.57;2.50;;;;;;;12.00;59.38;100353.95;128085;1104;62844;-73
2021/05/25 07:37:09;;;;;;;3.80;1.67;;;;;;;11.96;59.97;100346.55;128047;1104;63076;-73
2021/05/25 07:39:36;;;;;;;3.23;1.93;;;;;;;11.89;60.16;100351.00;128073;1104;64259;-73
2021/05/25 07:42:03;;;;;;;2.03;1.07;;;;;;;11.86;60.24;100365.47;128072;1104;62168;-73
2021/05/25 07:44:31;;;;;;;4.77;2.67;;;;;;;11.78;59.24;100347.81;128123;1104;62262;-73
2021/05/25 07:47:00;;;;;;;2.73;0.90;;;;;;;11.81;60.22;100354.58;128099;1104;62235;-72
2021/05/25 07:49:28;;;;;;;8.50;5.60;;;;;;;11.89;60.02;100357.13;128118;1104;62534;-72
2021/05/25 07:51:56;;;;;;;2.93;1.57;;;;;;;11.92;59.06;100358.58;128112;1104;62469;-72
2021/05/25 07:54:24;;;;;;;1.07;0.50;;;;;;;11.99;59.68;100357.63;128082;1104;62436;-73
2021/05/25 07:56:51;;;;;;;1.20;0.40;;;;;;;12.14;59.71;100360.20;128107;1104;62243;-73
2021/05/25 07:59:18;;;;;;;0.80;0.33;;;;;;;12.16;58.73;100358.17;128106;1104;62396;-73
2021/05/25 08:01:45;;;;;;;1.60;0.73;;;;;;;12.28;59.21;100354.97;128109;1104;62466;-73
2021/05/25 08:04:12;;;;;;;5.03;1.50;;;;;;;12.43;58.32;100358.33;128106;1104;62227;-73
2021/05/25 08:06:39;;;;;;;2.00;1.00;;;;;;;12.51;58.36;100355.52;128124;1104;62030;-74
2021/05/25 08:09:06;;;;;;;2.00;0.77;;;;;;;12.49;57.80;100357.55;128075;1104;62387;-74
2021/05/25 08:11:34;;;;;;;5.30;2.33;;;;;;;12.52;58.36;100351.86;128080;1104;62857;-73
2021/05/25 08:14:05;;;;;;;5.67;2.43;;;;;;;12.50;58.17;100351.23;128025;1105;63703;-73
2021/05/25 08:16:34;;;;;;;4.70;1.95;;;;;;;12.41;57.73;100355.89;128078;1104;62327;-73
2021/05/25 08:19:10;;;;;;;6.00;2.80;;;;;;;12.38;58.04;100366.09;128104;1104;62272;-73
2021/05/25 08:21:39;;;;;;;3.67;1.80;;;;;;;12.23;56.97;100359.03;128105;1104;62348;-73
2021/05/25 08:24:07;;;;;;;1.70;0.50;;;;;;;12.18;58.19;100350.82;128076;1104;62076;-74
2021/05/25 08:26:36;;;;;;;1.37;0.60;;;;;;;12.35;58.43;100361.17;128095;1104;62139;-74
2021/05/25 08:29:04;;;;;;;2.90;1.67;;;;;;;12.45;55.59;100353.64;128140;1104;62221;-72
2021/05/25 08:31:31;;;;;;;4.43;2.53;;;;;;;12.67;55.03;100354.39;128089;1104;62537;-74
2021/05/25 08:34:01;;;;;;;2.20;0.70;;;;;;;13.00;54.73;100343.88;128068;1105;62336;-74
2021/05/25 08:36:32;;;;;;;5.27;3.07;;;;;;;13.21;53.80;100339.44;128150;1104;62395;-73
2021/05/25 08:38:59;;;;;;;2.07;0.90;;;;;;;13.14;53.58;100350.08;128070;1104;62504;-72
2021/05/25 08:41:27;;;;;;;1.00;0.50;;;;;;;13.06;54.20;100343.08;128090;1104;62483;-73
2021/05/25 08:43:53;;;;;;;1.40;0.43;;;;;;;12.98;54.25;100345.91;128068;1104;64168;-72
2021/05/25 08:46:24;;;;;;;0.57;0.40;;;;;;;12.85;55.20;100352.00;128062;1104;62242;-73
2021/05/25 08:48:52;;;;;;;1.00;0.40;;;;;;;12.81;54.46;100344.62;128100;1104;62905;-72
2021/05/25 08:51:19;;;;;;;1.70;0.60;;;;;;;12.73;54.38;100353.61;128115;1104;62323;-72
2021/05/25 08:53:46;;;;;;;0.93;0.40;;;;;;;12.70;54.90;100353.17;128063;1104;62464;-75
2021/05/25 08:56:13;;;;;;;0.50;0.30;;;;;;;12.57;54.47;100370.70;128027;1104;62363;-75
2021/05/25 08:58:40;;;;;;;3.17;0.60;;;;;;;12.45;55.04;100356.30;128069;1104;62087;-76
2021/05/25 09:01:07;;;;;;;0.87;0.30;;;;;;;12.38;55.05;100371.41;128087;1104;62184;-75
2021/05/25 09:03:56;;;;;;;0.77;0.30;;;;;;;12.30;54.93;100361.73;128001;1104;63101;-75
2021/05/25 09:06:52;;;;;;;1.10;0.40;;;;;;;12.27;56.28;100374.61;128065;1104;62278;-75
2021/05/25 09:09:20;;;;;;;2.37;1.20;;;;;;;12.24;56.77;100381.97;128029;1101;62219;-74
2021/05/25 09:12:04;;;;;;;1.10;0.40;;;;;;;12.39;57.56;100371.22;128082;1104;62221;-75
2021/05/25 09:14:33;;;;;;;0.63;0.30;;;;;;;12.36;58.35;100378.76;128087;1104;62253;-71
2021/05/25 09:17:21;;;;;;;0.87;0.33;;;;;;;12.35;58.56;100371.81;128133;1104;62104;-72
2021/05/25 09:19:55;;;;;;;1.53;0.30;;;;;;;12.29;59.29;100383.22;128089;1104;62651;-72
2021/05/25 09:22:39;;;;;;;0.57;0.30;;;;;;;12.38;60.24;100374.88;128080;1104;62966;-73
2021/05/25 09:25:13;;;;;;;1.25;0.28;;;;;;;12.39;58.82;100367.75;128112;1104;62110;-72
2021/05/25 09:27:46;;;;;;;1.90;0.30;;;;;;;12.23;59.36;100371.52;128120;1104;62901;-73
2021/05/25 09:30:21;;;;;;;0.23;0.13;;;;;;;12.09;59.56;100378.58;128170;1101;62215;-73
2021/05/25 09:32:59;;;;;;;0.40;0.20;;;;;;;11.92;59.85;100385.16;128140;1104;62317;-73
2021/05/25 09:35:38;;;;;;;0.83;0.40;;;;;;;11.73;59.23;100367.99;128105;1104;62288;-73
2021/05/25 09:38:13;;;;;;;1.77;0.20;;;;;;;11.57;61.18;100363.77;128039;1104;62254;-74
2021/05/25 09:40:45;;;;;;;0.20;0.10;;;;;;;11.35;63.08;100370.91;128061;1104;62508;-73
2021/05/25 09:43:21;;;;;;;0.27;0.10;;;;;;;11.17;64.91;100366.00;128092;1104;63514;-74
2021/05/25 09:45:55;;;;;;;1.47;0.30;;;;;;;11.18;65.84;100359.70;128093;1105;62245;-73
2021/05/25 09:48:24;;;;;;;0.57;0.10;;;;;;;11.22;66.01;100355.66;128117;1104;62211;-74
2021/05/25 09:50:54;;;;;;;0.20;0.20;;;;;;;11.34;65.43;100355.97;128160;1104;64041;-74
2021/05/25 09:53:23;;;;;;;0.47;0.10;;;;;;;11.53;64.01;100347.38;128117;1104;62845;-73
2021/05/25 09:55:56;;;;;;;0.33;0.10;;;;;;;11.85;64.63;100345.20;128097;1104;62326;-73
2021/05/25 09:58:25;;;;;;;0.27;0.10;;;;;;;12.25;63.64;100342.89;128232;1101;62311;-72
2021/05/25 10:00:53;;;;;;;0.50;0.27;;;;;;;12.60;62.16;100342.88;128107;1101;62632;-73
2021/05/25 10:03:24;;;;;;;0.30;0.20;;;;;;;12.99;58.11;100341.43;128149;1104;62225;-73
2021/05/25 10:05:53;;;;;;;0.30;0.10;;;;;;;13.39;58.11;100330.92;127893;1104;62593;-72
2021/05/25 10:08:24;;;;;;;0.53;0.23;;;;;;;13.75;54.95;100354.54;128093;1104;62895;-72
2021/05/25 10:10:56;;;;;;;0.60;0.23;;;;;;;13.79;53.88;100347.77;128081;1104;62274;-71
2021/05/25 10:13:26;;;;;;;1.67;0.30;;;;;;;13.67;52.96;100354.73;128100;1104;64334;-72
2021/05/25 10:15:53;;;;;;;0.80;0.20;;;;;;;13.53;53.89;100348.55;128126;1104;62384;-73
2021/05/25 10:21:15;;;;;;;0.10;0.10;;;;;;;13.31;54.21;100345.23;128105;1104;62084;-73
2021/05/25 10:23:43;;;;;;;0.60;0.20;;;;;;;13.43;54.86;100342.78;128078;1104;62074;-73
2021/05/25 10:26:19;;;;;;;0.40;0.17;;;;;;;13.64;54.31;100345.30;128133;1104;62147;-71
2021/05/25 10:28:51;;;;;;;0.70;0.15;;;;;;;13.81;54.63;100340.39;128115;1104;61770;-72
2021/05/25 10:31:36;;;;;;;0.30;0.20;;;;;;;14.00;52.85;100337.91;128161;1104;62839;-73
2021/05/25 10:34:12;;;;;;;0.20;0.10;;;;;;;14.00;53.31;100343.24;128101;1104;62746;-73
2021/05/25 10:36:45;;;;;;;0.87;0.20;;;;;;;13.95;53.00;100351.05;128154;1104;62147;-74
2021/05/25 10:39:27;;;;;;;1.83;0.30;;;;;;;14.04;52.30;100336.47;128123;1104;62298;-74
2021/05/25 10:42:16;;;;;;;0.50;0.20;;;;;;;14.20;52.49;100327.23;128111;1104;62153;-74
2021/05/25 10:44:49;;;;;;;0.33;0.20;;;;;;;14.50;52.52;100338.25;128132;1103;63993;-73
2021/05/25 10:47:28;;;;;;;2.00;0.30;;;;;;;14.67;52.26;100327.97;128084;1102;62494;-73
2021/05/25 10:50:12;;;;;;;0.40;0.40;;;;;;;14.50;50.86;100338.25;128161;1101;62393;-73
2021/05/25 10:52:59;;;;;;;0.20;0.20;;;;;;;14.21;52.15;100340.34;128080;1104;62210;-73
2021/05/25 10:55:29;;;;;;;6.57;0.40;;;;;;;13.82;52.13;100359.88;128091;1104;62173;-73
2021/05/25 10:57:56;;;;;;;0.50;0.23;;;;;;;13.41;52.96;100355.52;128124;1104;62324;-73
2021/05/25 11:00:32;;;;;;;2.23;0.47;;;;;;;12.93;54.46;100345.70;128115;1104;62091;-73
2021/05/25 11:03:19;;;;;;;0.10;0.10;;;;;;;12.53;56.00;100348.16;128154;1104;62067;-74
2021/05/25 11:05:55;;;;;;;0.47;0.20;;;;;;;12.15;57.83;100366.33;128138;1105;62343;-74
2021/05/25 11:08:28;;;;;;;0.23;0.10;;;;;;;11.98;59.08;100373.77;128142;1104;62282;-74
2021/05/25 11:11:06;;;;;;;0.40;0.20;;;;;;;11.87;59.03;100374.27;128084;1104;62045;-73
2021/05/25 11:13:42;;;;;;;0.50;0.30;;;;;;;11.76;59.96;100371.09;128150;1104;61837;-73
2021/05/25 11:16:31;;;;;;;0.77;0.30;;;;;;;11.78;60.21;100374.39;128174;1104;61952;-74
2021/05/25 11:19:31;;;;;;;0.43;0.20;;;;;;;11.89;59.82;100388.22;128190;1104;62051;-73
2021/05/25 11:24:41;;;;;;;2.93;0.30;;;;;;;12.33;58.37;100387.14;128132;1104;62259;-73
2021/05/25 11:27:26;;;;;;;1.10;0.47;;;;;;;12.56;58.59;100384.20;128076;1104;62319;-73
2021/05/25 11:29:59;;;;;;;0.40;0.27;;;;;;;12.93;57.98;100384.81;128113;1104;62072;-73
2021/05/25 11:32:37;;;;;;;0.13;0.13;;;;;;;13.32;58.13;100376.17;128146;1104;62506;-73
2021/05/25 11:35:13;;;;;;;0.77;0.30;;;;;;;13.79;56.01;100382.44;128148;1104;62140;-73
2021/05/25 11:37:46;;;;;;;1.03;0.40;;;;;;;14.03;55.94;100388.19;128169;1104;62974;-72
2021/05/25 11:40:16;;;;;;;0.40;0.20;;;;;;;13.95;54.50;100383.05;128147;1104;62070;-73
2021/05/25 11:42:46;;;;;;;1.00;0.30;;;;;;;13.77;54.78;100381.81;128181;1104;62502;-73